Time;durP1;ratioP1;P1;durP2;ratioP2;P2;SDS_P1;SDS_P2;PMS_P1;PMS_P2;Temp;Humidity;BMP_temperature;BMP_pressure;BME280_temperature;BME280_humidity;BME280_pressure;Samples;Min_cycle;Max_cycle;Signal;HPM_P1;HPM_P2
2023/06/08 00:01:58;;;;;;;;;;;16.30;99.90;;;;;;5025957;28;20020;-74
2023/06/08 00:04:30;;;;;;;;;;;16.20;99.90;;;;;;5024959;28;19975;-73
2023/06/08 00:06:59;;;;;;;;;;;16.20;99.90;;;;;;5030389;28;19929;-73
2023/06/08 00:09:26;;;;;;;;;;;16.20;99.90;;;;;;5006446;28;19925;-73
2023/06/08 00:11:55;;;;;;;;;;;16.20;99.90;;;;;;5009724;28;19925;-74
2023/06/08 00:14:21;;;;;;;;;;;16.10;99.90;;;;;;5011422;28;19925;-73
2023/06/08 00:16:49;;;;;;;;;;;16.10;99.90;;;;;;5011160;28;19975;-74
2023/06/08 00:19:16;;;;;;;;;;;16.10;99.90;;;;;;5013824;28;19929;-74
2023/06/08 00:21:44;;;;;;;;;;;16.00;99.90;;;;;;5010009;28;19925;-73
2023/06/08 00:24:12;;;;;;;;;;;16.00;99.90;;;;;;5008869;28;20397;-73
2023/06/08 00:26:40;;;;;;;;;;;15.90;99.90;;;;;;5014025;28;19933;-73
2023/06/08 00:29:07;;;;;;;;;;;15.90;99.90;;;;;;5028867;28;19929;-74
2023/06/08 00:31:33;;;;;;;;;;;15.90;99.90;;;;;;5006691;28;20343;-73
2023/06/08 00:34:00;;;;;;;;;;;15.90;99.90;;;;;;5019848;28;19925;-73
2023/06/08 00:36:27;;;;;;;;;;;15.80;99.90;;;;;;5003523;28;19929;-74
2023/06/08 00:38:54;;;;;;;;;;;15.80;99.90;;;;;;5004766;28;19926;-74
2023/06/08 00:41:22;;;;;;;;;;;15.70;99.90;;;;;;5011880;28;19940;-73
2023/06/08 00:43:49;;;;;;;;;;;15.70;99.90;;;;;;5008756;28;19929;-73
2023/06/08 00:46:16;;;;;;;;;;;15.70;99.90;;;;;;5013797;28;19929;-73
2023/06/08 00:48:45;;;;;;;;;;;15.70;99.90;;;;;;5006513;28;20023;-73
2023/06/08 00:51:12;;;;;;;;;;;15.60;99.90;;;;;;5018229;28;20346;-73
2023/06/08 00:53:39;;;;;;;;;;;15.60;99.90;;;;;;5010276;28;19925;-73
2023/06/08 00:56:07;;;;;;;;;;;15.60;99.90;;;;;;5002652;28;20446;-73
2023/06/08 00:58:37;;;;;;;;;;;15.50;99.90;;;;;;5031907;28;19926;-73
2023/06/08 01:01:04;;;;;;;;;;;15.50;99.90;;;;;;5003059;28;19940;-73
2023/06/08 01:03:35;;;;;;;;;;;15.50;99.90;;;;;;5005794;28;19929;-73
2023/06/08 01:06:02;;;;;;;;;;;15.50;99.90;;;;;;5006489;28;20019;-73
2023/06/08 01:08:35;;;;;;;;;;;15.50;99.90;;;;;;5007122;28;19925;-72
2023/06/08 01:11:05;;;;;;;;;;;15.50;99.90;;;;;;5023349;28;19929;-73
2023/06/08 01:13:37;;;;;;;;;;;15.50;99.90;;;;;;5006636;28;19928;-73
2023/06/08 01:16:05;;;;;;;;;;;15.50;99.90;;;;;;5008028;28;20397;-73
2023/06/08 01:18:38;;;;;;;;;;;15.50;99.90;;;;;;5009842;28;20028;-73
2023/06/08 01:21:11;;;;;;;;;;;15.40;99.90;;;;;;5007796;28;19925;-73
2023/06/08 01:23:44;;;;;;;;;;;15.30;99.90;;;;;;5026972;28;19929;-73
2023/06/08 01:26:18;;;;;;;;;;;15.30;99.90;;;;;;5025106;28;19925;-73
2023/06/08 01:28:48;;;;;;;;;;;15.30;99.90;;;;;;5009171;28;19925;-73
2023/06/08 01:31:15;;;;;;;;;;;15.30;99.90;;;;;;5031050;28;19925;-73
2023/06/08 01:33:42;;;;;;;;;;;15.30;99.90;;;;;;5001907;28;20003;-73
2023/06/08 01:36:12;;;;;;;;;;;15.30;99.90;;;;;;5006355;28;19925;-73
2023/06/08 01:38:42;;;;;;;;;;;15.40;99.90;;;;;;5024282;28;19971;-73
2023/06/08 01:41:12;;;;;;;;;;;15.40;99.90;;;;;;5006802;28;20281;-73
2023/06/08 01:43:42;;;;;;;;;;;15.50;99.90;;;;;;5023431;28;19933;-73
2023/06/08 01:46:11;;;;;;;;;;;15.50;99.90;;;;;;5030577;28;20025;-73
2023/06/08 01:48:39;;;;;;;;;;;15.50;99.90;;;;;;5009119;28;20027;-73
2023/06/08 01:51:07;;;;;;;;;;;15.50;99.90;;;;;;5003916;28;19925;-74
2023/06/08 01:53:34;;;;;;;;;;;15.50;99.90;;;;;;5003936;28;20297;-73
2023/06/08 01:56:01;;;;;;;;;;;15.50;99.90;;;;;;5009334;28;20035;-73
2023/06/08 01:58:28;;;;;;;;;;;15.50;99.90;;;;;;5011519;28;19929;-73
2023/06/08 02:00:56;;;;;;;;;;;15.50;99.90;;;;;;5009802;28;20368;-73
2023/06/08 02:03:23;;;;;;;;;;;15.50;99.90;;;;;;5004017;28;20289;-73
2023/06/08 02:05:49;;;;;;;;;;;15.50;99.90;;;;;;5007418;28;19926;-74
2023/06/08 02:08:16;;;;;;;;;;;15.50;99.90;;;;;;5001304;28;19929;-73
2023/06/08 02:10:43;;;;;;;;;;;15.50;99.90;;;;;;5002186;28;19925;-73
2023/06/08 02:13:10;;;;;;;;;;;15.50;99.90;;;;;;5010695;28;20339;-73
2023/06/08 02:15:40;;;;;;;;;;;15.60;99.90;;;;;;5000694;28;19933;-74
2023/06/08 02:18:08;;;;;;;;;;;15.60;99.90;;;;;;5005782;28;20400;-73
2023/06/08 02:20:35;;;;;;;;;;;15.60;99.90;;;;;;5003667;28;19925;-73
2023/06/08 02:23:02;;;;;;;;;;;15.60;99.90;;;;;;5002661;28;19929;-74
2023/06/08 02:25:28;;;;;;;;;;;15.50;99.90;;;;;;5002901;28;19930;-73
2023/06/08 02:27:55;;;;;;;;;;;15.50;99.90;;;;;;5007619;28;19925;-73
2023/06/08 02:30:22;;;;;;;;;;;15.40;99.90;;;;;;5007812;28;19925;-73
2023/06/08 02:32:49;;;;;;;;;;;15.30;99.90;;;;;;5002674;28;20405;-73
2023/06/08 02:35:17;;;;;;;;;;;15.20;99.90;;;;;;5000479;28;19929;-73
2023/06/08 02:37:46;;;;;;;;;;;15.10;99.90;;;;;;5026771;28;19957;-73
2023/06/08 02:40:13;;;;;;;;;;;15.00;99.90;;;;;;5005349;28;20020;-73
2023/06/08 02:42:41;;;;;;;;;;;14.90;99.90;;;;;;5012833;28;20028;-73
2023/06/08 02:45:10;;;;;;;;;;;14.80;99.90;;;;;;5005694;28;19925;-73
2023/06/08 02:47:37;;;;;;;;;;;14.90;99.90;;;;;;5006112;28;19925;-73
2023/06/08 02:50:05;;;;;;;;;;;14.90;99.90;;;;;;5007014;28;20362;-73
2023/06/08 02:52:34;;;;;;;;;;;14.90;99.90;;;;;;5017790;28;19925;-73
2023/06/08 02:55:00;;;;;;;;;;;14.90;99.90;;;;;;5005838;28;19929;-73
2023/06/08 02:57:27;;;;;;;;;;;14.90;99.90;;;;;;4999281;28;19953;-73
2023/06/08 03:00:00;;;;;;;;;;;14.90;99.90;;;;;;5009506;28;19925;-73
2023/06/08 03:02:30;;;;;;;;;;;15.00;99.90;;;;;;4998172;28;19929;-73
2023/06/08 03:05:02;;;;;;;;;;;15.00;99.90;;;;;;5012614;28;19925;-73
2023/06/08 03:07:29;;;;;;;;;;;15.10;99.90;;;;;;5008907;28;20412;-73
2023/06/08 03:10:04;;;;;;;;;;;15.20;99.90;;;;;;5008372;28;19926;-73
2023/06/08 03:12:31;;;;;;;;;;;15.20;99.90;;;;;;4999611;28;19952;-73
2023/06/08 03:14:59;;;;;;;;;;;15.20;99.90;;;;;;5005104;28;19961;-73
2023/06/08 03:17:28;;;;;;;;;;;15.20;99.90;;;;;;5014141;28;19961;-73
2023/06/08 03:19:56;;;;;;;;;;;15.30;99.90;;;;;;5010352;28;19924;-73
2023/06/08 03:22:26;;;;;;;;;;;15.20;99.90;;;;;;5016329;28;19925;-72
2023/06/08 03:25:00;;;;;;;;;;;15.20;99.90;;;;;;5009906;28;20306;-73
2023/06/08 03:27:29;;;;;;;;;;;15.20;99.90;;;;;;5016569;28;19929;-73
2023/06/08 03:29:58;;;;;;;;;;;15.30;99.90;;;;;;5016749;28;19925;-73
2023/06/08 03:32:36;;;;;;;;;;;15.20;99.90;;;;;;5012749;28;19925;-73
2023/06/08 03:35:03;;;;;;;;;;;15.20;99.90;;;;;;5005813;28;20020;-74
2023/06/08 03:37:31;;;;;;;;;;;15.20;99.90;;;;;;5004891;28;20269;-73
2023/06/08 03:39:59;;;;;;;;;;;15.30;99.90;;;;;;5001147;28;19926;-73
2023/06/08 03:42:27;;;;;;;;;;;15.30;99.90;;;;;;5005405;28;20024;-73
2023/06/08 03:44:58;;;;;;;;;;;15.30;99.90;;;;;;5016660;28;20119;-73
2023/06/08 03:47:25;;;;;;;;;;;15.30;99.90;;;;;;5016318;28;20388;-73
2023/06/08 03:49:53;;;;;;;;;;;15.30;99.90;;;;;;5010956;28;19983;-73
2023/06/08 03:52:19;;;;;;;;;;;15.30;99.90;;;;;;5016237;28;19925;-73
2023/06/08 03:54:46;;;;;;;;;;;15.40;99.90;;;;;;5016719;28;19931;-73
2023/06/08 03:57:16;;;;;;;;;;;15.40;99.90;;;;;;5003748;28;19933;-72
2023/06/08 03:59:43;;;;;;;;;;;15.40;99.90;;;;;;5008072;28;20040;-73
2023/06/08 04:02:11;;;;;;;;;;;15.40;99.90;;;;;;5030094;28;19929;-73
2023/06/08 04:04:39;;;;;;;;;;;15.40;99.90;;;;;;5011014;28;19929;-73
2023/06/08 04:07:06;;;;;;;;;;;15.40;99.90;;;;;;5010098;28;19932;-74
2023/06/08 04:09:33;;;;;;;;;;;15.40;99.90;;;;;;5033271;28;19933;-74
2023/06/08 04:11:59;;;;;;;;;;;15.40;99.90;;;;;;5031572;23;20307;-69
2023/06/08 04:14:27;;;;;;;;;;;15.50;99.90;;;;;;5031434;28;20289;-69
2023/06/08 04:16:55;;;;;;;;;;;15.50;99.90;;;;;;5033164;28;19924;-70
2023/06/08 04:19:25;;;;;;;;;;;15.50;99.90;;;;;;5038332;28;20273;-70
2023/06/08 04:21:56;;;;;;;;;;;15.60;99.90;;;;;;5032727;28;19935;-67
2023/06/08 04:24:23;;;;;;;;;;;15.60;99.90;;;;;;5022858;28;19968;-70
2023/06/08 04:26:50;;;;;;;;;;;15.60;99.90;;;;;;5024083;28;20016;-70
2023/06/08 04:29:17;;;;;;;;;;;15.70;99.90;;;;;;5022187;28;19925;-69
2023/06/08 04:31:44;;;;;;;;;;;15.70;99.90;;;;;;5018135;28;19932;-71
2023/06/08 04:34:11;;;;;;;;;;;15.70;99.90;;;;;;5016172;28;20288;-70
2023/06/08 04:36:43;;;;;;;;;;;15.80;99.90;;;;;;5032377;28;20019;-70
2023/06/08 04:42:02;;;;;;;;;;;15.80;99.90;;;;;;5015728;28;19953;-69
2023/06/08 04:44:31;;;;;;;;;;;15.80;99.90;;;;;;5020356;28;20020;-69
2023/06/08 04:46:59;;;;;;;;;;;15.90;99.90;;;;;;5029643;28;19926;-69
2023/06/08 04:49:30;;;;;;;;;;;15.90;99.90;;;;;;5022240;28;19929;-70
2023/06/08 04:51:59;;;;;;;;;;;16.00;99.90;;;;;;5018521;28;19926;-70
2023/06/08 04:54:26;;;;;;;;;;;16.00;99.90;;;;;;5016565;28;19925;-72
2023/06/08 04:56:58;;;;;;;;;;;16.00;99.90;;;;;;5022109;28;19933;-72
2023/06/08 04:59:25;;;;;;;;;;;16.00;99.90;;;;;;5019805;28;19929;-73
2023/06/08 05:01:52;;;;;;;;;;;16.10;99.90;;;;;;5010153;28;19933;-72
2023/06/08 05:04:19;;;;;;;;;;;16.10;99.90;;;;;;5037501;28;19932;-73
2023/06/08 05:06:45;;;;;;;;;;;16.10;99.90;;;;;;5016642;28;19925;-73
2023/06/08 05:09:14;;;;;;;;;;;16.20;99.90;;;;;;5021554;28;19933;-71
2023/06/08 05:11:41;;;;;;;;;;;16.20;99.90;;;;;;5027666;28;19929;-70
2023/06/08 05:14:10;;;;;;;;;;;16.20;99.90;;;;;;5016982;28;19926;-77
2023/06/08 05:16:37;;;;;;;;;;;16.30;99.90;;;;;;5044372;28;20355;-70
2023/06/08 05:19:04;;;;;;;;;;;16.30;99.90;;;;;;5022492;28;20023;-71
2023/06/08 05:21:31;;;;;;;;;;;16.40;99.90;;;;;;5018996;28;19934;-70
2023/06/08 05:23:58;;;;;;;;;;;16.50;99.90;;;;;;5022829;28;19925;-69
2023/06/08 05:26:26;;;;;;;;;;;16.50;99.90;;;;;;5021412;28;20293;-70
2023/06/08 05:28:53;;;;;;;;;;;16.60;99.90;;;;;;5009146;28;20385;-70
2023/06/08 05:31:20;;;;;;;;;;;16.60;99.90;;;;;;5017560;28;19926;-71
2023/06/08 05:33:55;;;;;;;;;;;16.70;99.90;;;;;;5021080;28;19933;-71
2023/06/08 05:36:23;;;;;;;;;;;16.80;99.90;;;;;;5009441;28;19925;-69
2023/06/08 05:38:51;;;;;;;;;;;16.80;99.90;;;;;;5011665;28;19929;-71
2023/06/08 05:41:18;;;;;;;;;;;16.90;99.90;;;;;;5012203;28;20020;-68
2023/06/08 05:43:46;;;;;;;;;;;16.90;99.90;;;;;;5012311;28;19926;-69
2023/06/08 05:46:14;;;;;;;;;;;17.00;99.90;;;;;;5015640;28;19929;-69
2023/06/08 05:48:41;;;;;;;;;;;17.00;99.90;;;;;;5008623;28;20364;-70
2023/06/08 05:51:08;;;;;;;;;;;17.00;99.90;;;;;;5010479;28;19933;-71
2023/06/08 05:53:36;;;;;;;;;;;17.00;99.90;;;;;;5013539;28;19933;-70
2023/06/08 05:56:03;;;;;;;;;;;17.10;99.90;;;;;;5019024;28;20443;-70
2023/06/08 05:58:30;;;;;;;;;;;17.20;99.90;;;;;;5021060;28;19933;-72
2023/06/08 06:00:59;;;;;;;;;;;17.20;99.90;;;;;;5018748;28;19929;-69
2023/06/08 06:03:26;;;;;;;;;;;17.20;99.90;;;;;;5011282;28;20476;-70
2023/06/08 06:05:53;;;;;;;;;;;17.20;99.90;;;;;;5020374;28;19930;-69
2023/06/08 06:08:19;;;;;;;;;;;17.20;99.90;;;;;;5011979;28;20028;-69
2023/06/08 06:10:46;;;;;;;;;;;17.30;99.90;;;;;;5027064;28;19925;-72
2023/06/08 06:13:13;;;;;;;;;;;17.30;99.90;;;;;;5027591;28;20282;-70
2023/06/08 06:15:40;;;;;;;;;;;17.40;99.90;;;;;;5020177;28;19932;-70
2023/06/08 06:18:08;;;;;;;;;;;17.50;99.90;;;;;;5013155;28;19935;-70
2023/06/08 06:20:35;;;;;;;;;;;17.60;99.90;;;;;;5036959;28;19925;-71
2023/06/08 06:23:02;;;;;;;;;;;17.70;99.90;;;;;;5026349;28;19925;-69
2023/06/08 06:25:35;;;;;;;;;;;17.70;99.90;;;;;;5021979;28;19976;-70
2023/06/08 06:28:02;;;;;;;;;;;17.80;99.90;;;;;;5026995;28;20387;-70
2023/06/08 06:30:29;;;;;;;;;;;17.80;99.90;;;;;;5023158;28;19925;-70
2023/06/08 06:32:55;;;;;;;;;;;17.90;99.90;;;;;;5016628;28;19933;-73
2023/06/08 06:35:24;;;;;;;;;;;18.00;99.90;;;;;;5016661;28;19926;-70
2023/06/08 06:37:53;;;;;;;;;;;18.00;99.90;;;;;;5013712;28;19929;-69
2023/06/08 06:40:20;;;;;;;;;;;18.10;99.90;;;;;;5021156;28;19925;-72
2023/06/08 06:42:46;;;;;;;;;;;18.20;99.90;;;;;;5006095;28;20388;-71
2023/06/08 06:45:25;;;;;;;;;;;18.20;99.90;;;;;;5029271;28;19925;-71
2023/06/08 06:47:51;;;;;;;;;;;18.20;99.90;;;;;;5026760;28;19925;-70
2023/06/08 06:50:18;;;;;;;;;;;18.30;99.90;;;;;;5014704;28;19933;-72
2023/06/08 06:52:46;;;;;;;;;;;18.40;99.90;;;;;;5012810;28;19929;-73
2023/06/08 06:55:13;;;;;;;;;;;18.50;99.90;;;;;;5019708;28;19937;-70
2023/06/08 06:57:41;;;;;;;;;;;18.60;99.90;;;;;;5019130;28;19929;-69
2023/06/08 07:00:10;;;;;;;;;;;18.50;99.90;;;;;;5027930;28;19933;-71
2023/06/08 07:02:38;;;;;;;;;;;18.60;99.90;;;;;;5041869;28;20286;-74
2023/06/08 07:05:06;;;;;;;;;;;18.70;99.90;;;;;;5044215;28;20303;-72
2023/06/08 07:07:33;;;;;;;;;;;18.80;99.90;;;;;;5037054;28;19929;-73
2023/06/08 07:10:02;;;;;;;;;;;18.80;99.90;;;;;;5033236;28;20274;-68
2023/06/08 07:12:29;;;;;;;;;;;19.00;99.90;;;;;;5039864;28;19932;-70
2023/06/08 07:14:56;;;;;;;;;;;19.00;99.90;;;;;;5024853;28;20348;-72
2023/06/08 07:17:22;;;;;;;;;;;19.20;99.90;;;;;;5026383;28;19925;-70
2023/06/08 07:19:51;;;;;;;;;;;19.20;99.90;;;;;;5021766;28;19934;-70
2023/06/08 07:22:18;;;;;;;;;;;19.30;99.90;;;;;;5020613;28;19925;-72
2023/06/08 07:24:45;;;;;;;;;;;19.30;99.90;;;;;;5016876;28;19929;-70
2023/06/08 07:27:13;;;;;;;;;;;19.30;99.90;;;;;;5025217;28;19956;-70
2023/06/08 07:29:40;;;;;;;;;;;19.30;99.90;;;;;;5016107;28;19925;-70
2023/06/08 07:32:07;;;;;;;;;;;19.30;99.90;;;;;;5021811;28;19925;-73
2023/06/08 07:34:35;;;;;;;;;;;19.30;99.90;;;;;;5017760;28;19934;-70
2023/06/08 07:37:02;;;;;;;;;;;19.40;99.90;;;;;;5021534;28;19929;-70
2023/06/08 07:39:28;;;;;;;;;;;19.50;99.90;;;;;;5028149;28;20360;-73
2023/06/08 07:41:55;;;;;;;;;;;19.60;99.90;;;;;;5022646;28;19933;-70
2023/06/08 07:44:23;;;;;;;;;;;19.70;99.90;;;;;;5025489;28;19932;-70
2023/06/08 07:46:50;;;;;;;;;;;19.80;99.90;;;;;;5016232;28;19925;-69
2023/06/08 07:49:17;;;;;;;;;;;19.80;99.90;;;;;;5023492;28;19929;-71
2023/06/08 07:51:45;;;;;;;;;;;19.90;99.90;;;;;;5018698;28;19926;-71
2023/06/08 07:54:13;;;;;;;;;;;20.00;99.90;;;;;;5037798;28;19932;-72
2023/06/08 07:56:40;;;;;;;;;;;20.10;99.90;;;;;;5044451;28;19932;-70
2023/06/08 07:59:07;;;;;;;;;;;20.20;99.90;;;;;;5013996;28;20413;-70
2023/06/08 08:01:35;;;;;;;;;;;20.40;99.90;;;;;;5026637;28;19984;-70
2023/06/08 08:04:01;;;;;;;;;;;20.50;99.90;;;;;;5026371;28;19925;-70
2023/06/08 08:06:28;;;;;;;;;;;20.60;99.90;;;;;;5024074;28;19979;-70
2023/06/08 08:08:55;;;;;;;;;;;20.70;99.90;;;;;;5014768;28;19926;-70
2023/06/08 08:11:22;;;;;;;;;;;20.80;99.90;;;;;;5017184;28;19925;-70
2023/06/08 08:13:49;;;;;;;;;;;20.90;99.90;;;;;;5020858;28;20334;-70
2023/06/08 08:16:16;;;;;;;;;;;21.00;99.90;;;;;;5025158;28;20016;-70
2023/06/08 08:18:44;;;;;;;;;;;21.10;99.90;;;;;;5016715;28;19984;-71
2023/06/08 08:21:11;;;;;;;;;;;21.20;99.90;;;;;;5022421;28;19925;-73
2023/06/08 08:23:40;;;;;;;;;;;21.30;99.90;;;;;;5030153;28;20010;-71
2023/06/08 08:26:07;;;;;;;;;;;21.30;99.90;;;;;;5015623;28;19925;-70
2023/06/08 08:28:38;;;;;;;;;;;21.40;99.90;;;;;;5019924;28;19938;-69
2023/06/08 08:31:05;;;;;;;;;;;21.60;99.90;;;;;;5020533;28;19929;-71
2023/06/08 08:33:31;;;;;;;;;;;21.60;99.90;;;;;;5022585;28;19933;-72
2023/06/08 08:36:00;;;;;;;;;;;21.70;99.90;;;;;;5017028;28;19925;-69
2023/06/08 08:38:27;;;;;;;;;;;21.80;99.90;;;;;;5018902;28;19925;-69
2023/06/08 08:40:55;;;;;;;;;;;21.90;99.90;;;;;;5013157;28;19964;-69
2023/06/08 08:43:24;;;;;;;;;;;22.00;99.90;;;;;;5017764;28;19931;-73
2023/06/08 08:45:52;;;;;;;;;;;22.00;99.90;;;;;;5020805;28;19978;-69
2023/06/08 08:48:21;;;;;;;;;;;22.00;99.90;;;;;;5025026;28;19980;-69
2023/06/08 08:50:49;;;;;;;;;;;22.10;99.90;;;;;;5023033;28;19925;-71
2023/06/08 08:53:18;;;;;;;;;;;22.10;99.90;;;;;;5019577;28;19926;-69
2023/06/08 08:55:48;;;;;;;;;;;22.10;99.90;;;;;;5040336;28;19929;-70
2023/06/08 08:58:18;;;;;;;;;;;22.10;99.90;;;;;;5006015;28;19973;-69
2023/06/08 09:00:48;;;;;;;;;;;22.20;99.90;;;;;;5024077;28;19979;-72
2023/06/08 09:03:15;;;;;;;;;;;22.30;99.90;;;;;;5017161;28;19929;-72
2023/06/08 09:05:43;;;;;;;;;;;22.50;99.90;;;;;;5036511;28;19925;-68
2023/06/08 09:08:10;;;;;;;;;;;22.60;99.90;;;;;;5022822;28;19925;-68
2023/06/08 09:10:38;;;;;;;;;;;22.60;99.90;;;;;;5035980;28;19925;-71
2023/06/08 09:13:05;;;;;;;;;;;22.80;99.90;;;;;;5020890;28;19925;-69
2023/06/08 09:15:33;;;;;;;;;;;22.90;99.90;;;;;;5024376;28;19934;-71
2023/06/08 09:18:02;;;;;;;;;;;23.10;99.90;;;;;;5019173;28;19929;-70
2023/06/08 09:20:30;;;;;;;;;;;23.10;99.90;;;;;;5025381;28;19925;-71
2023/06/08 09:22:57;;;;;;;;;;;23.10;99.90;;;;;;5016472;28;19932;-71
2023/06/08 09:25:36;;;;;;;;;;;23.10;99.90;;;;;;5009169;28;19926;-72
2023/06/08 09:28:17;;;;;;;;;;;23.20;99.90;;;;;;5014621;28;19933;-71
2023/06/08 09:30:44;;;;;;;;;;;23.30;99.90;;;;;;5018980;28;19933;-73
2023/06/08 09:33:19;;;;;;;;;;;23.50;99.90;;;;;;5015939;28;19949;-73
2023/06/08 09:35:46;;;;;;;;;;;23.60;99.90;;;;;;5013317;28;19930;-72
2023/06/08 09:38:18;;;;;;;;;;;23.70;99.90;;;;;;5024352;28;19932;-74
2023/06/08 09:40:45;;;;;;;;;;;23.80;99.90;;;;;;5015027;28;20025;-72
2023/06/08 09:43:12;;;;;;;;;;;23.80;99.90;;;;;;5018307;28;19926;-73
2023/06/08 09:45:45;;;;;;;;;;;23.90;99.90;;;;;;5030011;28;19976;-71
2023/06/08 09:48:13;;;;;;;;;;;23.90;99.90;;;;;;5013525;28;19925;-71
2023/06/08 09:50:39;;;;;;;;;;;24.00;99.90;;;;;;5032033;28;19926;-71
2023/06/08 09:53:07;;;;;;;;;;;24.10;99.90;;;;;;5016904;28;19925;-72
2023/06/08 09:55:33;;;;;;;;;;;24.20;99.90;;;;;;5023065;28;19925;-73
2023/06/08 09:58:01;;;;;;;;;;;24.30;99.90;;;;;;5018699;28;19925;-70
2023/06/08 10:00:29;;;;;;;;;;;24.30;99.90;;;;;;5027704;28;19949;-73
2023/06/08 10:03:03;;;;;;;;;;;24.30;99.90;;;;;;5030741;28;19957;-71
2023/06/08 10:05:33;;;;;;;;;;;24.40;99.90;;;;;;5012776;28;19929;-72
2023/06/08 10:08:00;;;;;;;;;;;24.50;99.90;;;;;;5022861;28;20024;-72
2023/06/08 10:10:29;;;;;;;;;;;24.70;99.90;;;;;;5011135;28;19961;-71
2023/06/08 10:12:57;;;;;;;;;;;25.00;99.90;;;;;;5022993;28;19931;-70
2023/06/08 10:15:24;;;;;;;;;;;25.20;99.90;;;;;;5016938;28;19925;-72
2023/06/08 10:17:51;;;;;;;;;;;25.40;99.90;;;;;;5018520;28;19933;-72
2023/06/08 10:20:20;;;;;;;;;;;25.20;99.90;;;;;;5017435;28;19930;-71
2023/06/08 10:22:47;;;;;;;;;;;25.00;99.90;;;;;;5014396;28;19930;-70
2023/06/08 10:25:16;;;;;;;;;;;25.10;99.90;;;;;;5017164;28;20377;-71
2023/06/08 10:27:49;;;;;;;;;;;25.20;99.90;;;;;;5021611;28;19925;-71
2023/06/08 10:30:39;;;;;;;;;;;25.20;99.90;;;;;;5042875;28;20005;-71
2023/06/08 10:33:10;;;;;;;;;;;25.30;99.90;;;;;;5021123;28;20023;-71
2023/06/08 10:35:40;;;;;;;;;;;25.50;99.90;;;;;;5019660;28;19936;-72
2023/06/08 10:38:10;;;;;;;;;;;25.80;99.90;;;;;;5017302;28;19934;-73
2023/06/08 10:40:44;;;;;;;;;;;25.80;99.90;;;;;;5017070;28;19929;-72
2023/06/08 10:43:11;;;;;;;;;;;25.90;99.90;;;;;;5042579;28;20477;-72
2023/06/08 10:45:38;;;;;;;;;;;26.10;99.90;;;;;;5015159;28;19929;-72
2023/06/08 10:48:08;;;;;;;;;;;26.40;99.90;;;;;;5036011;28;19925;-74
2023/06/08 10:50:38;;;;;;;;;;;26.70;99.90;;;;;;5029915;28;19933;-71
2023/06/08 10:53:05;;;;;;;;;;;27.00;99.90;;;;;;5016795;28;19925;-71
2023/06/08 10:55:32;;;;;;;;;;;27.40;99.90;;;;;;5028596;28;20278;-72
2023/06/08 10:58:06;;;;;;;;;;;27.50;99.90;;;;;;5015021;28;19925;-71
2023/06/08 11:00:45;;;;;;;;;;;27.30;99.90;;;;;;5018813;28;19925;-73
2023/06/08 11:03:14;;;;;;;;;;;27.10;99.90;;;;;;5031592;28;19930;-72
2023/06/08 11:05:44;;;;;;;;;;;27.60;99.90;;;;;;5016971;28;19968;-72
2023/06/08 11:08:12;;;;;;;;;;;27.80;99.90;;;;;;5035616;28;20016;-73
2023/06/08 11:10:39;;;;;;;;;;;27.90;99.90;;;;;;5017204;28;19925;-72
2023/06/08 11:13:07;;;;;;;;;;;28.20;99.90;;;;;;5013853;28;19936;-74
2023/06/08 11:15:37;;;;;;;;;;;28.20;99.90;;;;;;5030996;28;20000;-72
2023/06/08 11:18:07;;;;;;;;;;;27.90;99.90;;;;;;5015572;28;19925;-72
2023/06/08 11:20:35;;;;;;;;;;;27.90;99.90;;;;;;5014801;28;20024;-71
2023/06/08 11:23:06;;;;;;;;;;;28.10;99.90;;;;;;5020455;28;19968;-70
2023/06/08 11:25:32;;;;;;;;;;;28.60;99.90;;;;;;5022378;28;19940;-70
2023/06/08 11:28:00;;;;;;;;;;;29.10;99.90;;;;;;5020244;28;19926;-71
2023/06/08 11:30:28;;;;;;;;;;;29.10;99.90;;;;;;5025842;28;19936;-78
2023/06/08 11:32:55;;;;;;;;;;;29.00;99.90;;;;;;5040196;28;20408;-79
2023/06/08 11:35:22;;;;;;;;;;;28.80;99.90;;;;;;5024821;28;19929;-71
2023/06/08 11:37:49;;;;;;;;;;;28.90;99.90;;;;;;5026256;28;19925;-70
2023/06/08 11:40:17;;;;;;;;;;;30.00;99.90;;;;;;5016534;28;19941;-71
2023/06/08 11:42:44;;;;;;;;;;;29.90;99.90;;;;;;5023670;28;19925;-70
2023/06/08 11:45:12;;;;;;;;;;;30.40;99.90;;;;;;5021870;28;19925;-70
2023/06/08 11:47:40;;;;;;;;;;;30.70;99.90;;;;;;5023357;28;19932;-71
2023/06/08 11:50:07;;;;;;;;;;;31.40;99.90;;;;;;5025328;28;20057;-71
2023/06/08 11:52:34;;;;;;;;;;;31.90;99.90;;;;;;5022424;28;20008;-71
2023/06/08 11:55:03;;;;;;;;;;;31.30;99.90;;;;;;5017287;28;19933;-71
2023/06/08 11:57:41;;;;;;;;;;;31.80;99.90;;;;;;5017557;28;19939;-71
2023/06/08 12:00:09;;;;;;;;;;;32.10;99.90;;;;;;5017943;28;19935;-71
2023/06/08 12:06:10;;;;;;;;;;;34.50;99.90;;;;;;5022817;28;19944;-72
2023/06/08 12:08:37;;;;;;;;;;;35.00;99.90;;;;;;5032789;28;19949;-72
2023/06/08 12:11:09;;;;;;;;;;;33.70;99.90;;;;;;5020555;28;19965;-71
2023/06/08 12:13:38;;;;;;;;;;;33.40;99.90;;;;;;5018587;28;20340;-71
2023/06/08 12:16:06;;;;;;;;;;;33.10;99.90;;;;;;5020006;28;19929;-73
2023/06/08 12:18:37;;;;;;;;;;;32.80;99.90;;;;;;5019993;28;19929;-72
2023/06/08 12:21:04;;;;;;;;;;;32.80;99.90;;;;;;5018937;28;20285;-72
2023/06/08 12:23:31;;;;;;;;;;;32.90;99.90;;;;;;5015705;28;19932;-73
2023/06/08 12:25:58;;;;;;;;;;;33.00;99.90;;;;;;5011960;28;19929;-72
2023/06/08 12:28:25;;;;;;;;;;;33.50;99.90;;;;;;5020362;28;19928;-72
2023/06/08 12:30:54;;;;;;;;;;;34.50;99.90;;;;;;5017843;28;19933;-72
2023/06/08 12:33:21;;;;;;;;;;;35.00;99.90;;;;;;5029696;28;19926;-73
2023/06/08 12:35:49;;;;;;;;;;;35.50;99.90;;;;;;5032735;28;19926;-72
2023/06/08 12:38:16;;;;;;;;;;;35.70;99.90;;;;;;5033938;28;20032;-72
2023/06/08 12:40:47;;;;;;;;;;;36.10;99.90;;;;;;5023050;28;20396;-72
2023/06/08 12:43:13;;;;;;;;;;;36.90;99.90;;;;;;5025982;28;19925;-73
2023/06/08 12:45:40;;;;;;;;;;;37.10;99.90;;;;;;5027930;28;19987;-72
2023/06/08 12:48:09;;;;;;;;;;;36.90;99.90;;;;;;5018886;28;19948;-72
2023/06/08 12:50:36;;;;;;;;;;;36.60;99.90;;;;;;5025360;28;20384;-72
2023/06/08 12:53:02;;;;;;;;;;;36.30;99.90;;;;;;5019480;28;19959;-72
2023/06/08 12:55:29;;;;;;;;;;;36.00;99.90;;;;;;5022575;28;20393;-71
2023/06/08 12:57:56;;;;;;;;;;;35.10;99.90;;;;;;5019838;28;19937;-71
2023/06/08 13:00:25;;;;;;;;;;;33.80;99.90;;;;;;5035201;28;19928;-67
2023/06/08 13:02:52;;;;;;;;;;;33.50;99.90;;;;;;5024538;28;19925;-74
2023/06/08 13:05:21;;;;;;;;;;;33.50;99.90;;;;;;5020294;28;19926;-74
2023/06/08 13:07:50;;;;;;;;;;;34.30;99.90;;;;;;5016076;28;19932;-73
2023/06/08 13:10:17;;;;;;;;;;;35.20;99.90;;;;;;5010996;28;19979;-73
2023/06/08 13:12:44;;;;;;;;;;;35.90;99.90;;;;;;5009804;28;19929;-75
2023/06/08 13:15:11;;;;;;;;;;;36.00;99.90;;;;;;5015818;28;19931;-73
2023/06/08 13:17:37;;;;;;;;;;;36.40;99.90;;;;;;5011784;28;19933;-74
2023/06/08 13:20:05;;;;;;;;;;;36.10;99.90;;;;;;5012271;28;19983;-76
2023/06/08 13:22:33;;;;;;;;;;;35.70;99.90;;;;;;5016046;28;19932;-75
2023/06/08 13:25:00;;;;;;;;;;;34.80;99.90;;;;;;5009942;28;19929;-74
2023/06/08 13:27:26;;;;;;;;;;;34.50;99.90;;;;;;5028312;28;19925;-75
2023/06/08 13:29:53;;;;;;;;;;;34.60;99.90;;;;;;5022038;28;20384;-71
2023/06/08 13:32:21;;;;;;;;;;;34.10;99.90;;;;;;5016442;28;19925;-71
2023/06/08 13:34:50;;;;;;;;;;;34.90;99.90;;;;;;5018778;28;19925;-70
2023/06/08 13:37:18;;;;;;;;;;;35.30;99.90;;;;;;4996773;28;20601;-71
2023/06/08 13:39:47;;;;;;;;;;;35.80;99.90;;;;;;5020415;28;19925;-72
2023/06/08 13:42:13;;;;;;;;;;;36.00;99.90;;;;;;5026144;28;20466;-71
2023/06/08 13:44:45;;;;;;;;;;;36.50;99.90;;;;;;5019500;28;19929;-70
2023/06/08 13:47:12;;;;;;;;;;;36.80;99.90;;;;;;5020914;28;19931;-75
2023/06/08 13:49:40;;;;;;;;;;;37.20;99.90;;;;;;5018580;28;19930;-79
2023/06/08 13:52:07;;;;;;;;;;;37.30;99.90;;;;;;5030627;28;19926;-75
2023/06/08 13:54:34;;;;;;;;;;;37.30;99.90;;;;;;5013658;28;20352;-73
2023/06/08 13:57:03;;;;;;;;;;;35.90;99.90;;;;;;5018775;28;19929;-70
2023/06/08 13:59:29;;;;;;;;;;;34.90;99.90;;;;;;5015681;28;19936;-70
2023/06/08 14:01:56;;;;;;;;;;;34.40;99.90;;;;;;5019061;28;19929;-73
2023/06/08 14:04:23;;;;;;;;;;;34.30;99.90;;;;;;5027717;28;19925;-73
2023/06/08 14:06:50;;;;;;;;;;;35.10;99.90;;;;;;5012580;28;20000;-70
2023/06/08 14:09:17;;;;;;;;;;;36.20;99.90;;;;;;5019622;28;19925;-70
2023/06/08 14:11:44;;;;;;;;;;;36.10;99.90;;;;;;5016176;28;20356;-73
2023/06/08 14:14:12;;;;;;;;;;;36.30;99.90;;;;;;5012686;28;19925;-72
2023/06/08 14:16:39;;;;;;;;;;;36.20;99.90;;;;;;5018084;28;19929;-72
2023/06/08 14:19:06;;;;;;;;;;;36.30;99.90;;;;;;5013405;28;19929;-70
2023/06/08 14:21:33;;;;;;;;;;;36.30;99.90;;;;;;5023295;28;20404;-70
2023/06/08 14:23:59;;;;;;;;;;;36.60;99.90;;;;;;5019826;28;19929;-71
2023/06/08 14:26:26;;;;;;;;;;;35.60;99.90;;;;;;5009830;28;19925;-70
2023/06/08 14:28:53;;;;;;;;;;;34.90;99.90;;;;;;5013661;28;20002;-70